createdAt,value
2022-09-15T00:00:56.376Z,1003.36
2022-09-15T00:01:56.399Z,1003.38
2022-09-15T00:02:56.405Z,1003.34
2022-09-15T00:03:56.248Z,1003.31
2022-09-15T00:04:56.205Z,1003.29
2022-09-15T00:05:56.156Z,1003.27
2022-09-15T00:06:56.110Z,1003.31
2022-09-15T00:07:56.067Z,1003.29
2022-09-15T00:08:56.020Z,1003.30
2022-09-15T00:09:55.976Z,1003.29
2022-09-15T00:10:55.943Z,1003.31
2022-09-15T00:11:55.890Z,1003.32
2022-09-15T00:12:56.066Z,1003.37
2022-09-15T00:13:55.798Z,1003.33
2022-09-15T00:14:55.754Z,1003.33
2022-09-15T00:15:55.714Z,1003.37
2022-09-15T00:16:55.745Z,1003.29
2022-09-15T00:17:55.623Z,1003.30
2022-09-15T00:18:55.573Z,1003.35
2022-09-15T00:19:55.534Z,1003.31
2022-09-15T00:20:55.485Z,1003.31
2022-09-15T00:21:55.445Z,1003.32
2022-09-15T00:22:55.396Z,1003.34
2022-09-15T00:23:55.352Z,1003.32
2022-09-15T00:24:55.307Z,1003.35
2022-09-15T00:25:55.265Z,1003.39
2022-09-15T00:26:55.224Z,1003.35
2022-09-15T00:27:55.175Z,1003.36
2022-09-15T00:28:55.230Z,1003.32
2022-09-15T00:29:55.090Z,1003.32
2022-09-15T00:30:55.131Z,1003.30
2022-09-15T00:31:54.994Z,1003.25
2022-09-15T00:32:54.948Z,1003.24
2022-09-15T00:33:54.906Z,1003.24
2022-09-15T00:34:54.858Z,1003.21
2022-09-15T00:35:54.816Z,1003.21
2022-09-15T00:36:54.770Z,1003.25
2022-09-15T00:37:54.930Z,1003.20
2022-09-15T00:40:21.529Z,1003.24
2022-09-15T00:41:21.401Z,1003.25
2022-09-15T00:42:21.355Z,1003.22
2022-09-15T00:43:21.316Z,1003.25
2022-09-15T00:44:21.289Z,1003.22
2022-09-15T00:45:21.222Z,1003.23
2022-09-15T00:46:21.264Z,1003.18
2022-09-15T00:47:21.137Z,1003.19
2022-09-15T00:48:21.087Z,1003.20
2022-09-15T00:49:21.047Z,1003.17
2022-09-15T00:50:21.003Z,1003.18
2022-09-15T00:51:20.955Z,1003.10
2022-09-15T00:52:20.907Z,1003.17
2022-09-15T00:53:20.890Z,1003.16
2022-09-15T00:54:20.820Z,1003.14
2022-09-15T00:55:20.784Z,1003.16
2022-09-15T00:56:20.741Z,1003.15
2022-09-15T00:57:20.686Z,1003.14
2022-09-15T00:59:20.599Z,1003.19
2022-09-15T01:00:20.569Z,1003.21
2022-09-15T01:01:20.553Z,1003.14
2022-09-15T01:02:20.506Z,1003.19
2022-09-15T01:03:20.415Z,1003.15
2022-09-15T01:04:20.371Z,1003.14
2022-09-15T01:05:20.325Z,1003.16
2022-09-15T01:06:20.282Z,1003.12
2022-09-15T01:07:20.238Z,1003.16
2022-09-15T01:08:20.194Z,1003.17
2022-09-15T01:09:20.152Z,1003.19
2022-09-15T01:10:20.103Z,1003.15
2022-09-15T01:11:20.058Z,1003.14
2022-09-15T01:12:20.014Z,1003.15
2022-09-15T01:13:19.966Z,1003.11
2022-09-15T01:14:19.923Z,1003.13
2022-09-15T01:15:19.878Z,1003.13
2022-09-15T01:16:19.908Z,1003.13
2022-09-15T01:17:19.787Z,1003.11
2022-09-15T01:18:19.744Z,1003.11
2022-09-15T01:19:19.697Z,1003.13
2022-09-15T01:20:19.657Z,1003.13
2022-09-15T01:21:19.607Z,1003.11
2022-09-15T01:22:19.565Z,1003.10
2022-09-15T01:23:19.523Z,1003.08
2022-09-15T01:24:19.477Z,1003.10
2022-09-15T01:25:19.429Z,1003.13
2022-09-15T01:26:19.390Z,1003.13
2022-09-15T01:27:41.201Z,1003.15
2022-09-15T01:28:19.295Z,1003.17
2022-09-15T01:29:21.240Z,1003.18
2022-09-15T01:30:19.209Z,1003.18
2022-09-15T01:31:19.213Z,1003.23
2022-09-15T01:32:19.136Z,1003.20
2022-09-15T01:33:19.074Z,1003.16
2022-09-15T01:34:19.024Z,1003.18
2022-09-15T01:35:18.982Z,1003.14
2022-09-15T01:36:18.938Z,1003.15
2022-09-15T01:37:18.890Z,1003.14
2022-09-15T01:38:18.844Z,1003.16
2022-09-15T01:39:18.799Z,1003.19
2022-09-15T01:40:18.896Z,1003.22
2022-09-15T01:41:18.708Z,1003.19
2022-09-15T01:42:18.669Z,1003.18
2022-09-15T01:43:18.619Z,1003.24
2022-09-15T01:44:18.582Z,1003.25
2022-09-15T01:45:18.534Z,1003.28
2022-09-15T01:46:18.567Z,1003.23
2022-09-15T01:47:18.439Z,1003.23
2022-09-15T01:48:18.422Z,1003.21
2022-09-15T01:49:18.350Z,1003.22
2022-09-15T01:50:18.307Z,1003.20
2022-09-15T01:51:18.259Z,1003.23
2022-09-15T01:52:18.215Z,1003.18
2022-09-15T01:53:18.169Z,1003.16
2022-09-15T01:54:18.123Z,1003.15
2022-09-15T01:55:18.083Z,1003.18
2022-09-15T01:56:18.037Z,1003.16
2022-09-15T01:57:17.988Z,1003.22
2022-09-15T01:58:17.947Z,1003.21
2022-09-15T01:59:17.900Z,1003.24
2022-09-15T02:00:17.855Z,1003.26
2022-09-15T02:01:17.856Z,1003.26
2022-09-15T02:02:17.827Z,1003.25
2022-09-15T02:03:17.719Z,1003.26
2022-09-15T02:04:17.693Z,1003.23
2022-09-15T02:05:17.629Z,1003.23
2022-09-15T02:06:17.587Z,1003.19
2022-09-15T02:07:17.539Z,1003.20
2022-09-15T02:08:17.495Z,1003.22
2022-09-15T02:09:17.446Z,1003.22
2022-09-15T02:10:17.405Z,1003.22
2022-09-15T02:11:17.356Z,1003.21
2022-09-15T02:12:17.313Z,1003.22
2022-09-15T02:13:17.281Z,1003.22
2022-09-15T02:14:17.231Z,1003.20
2022-09-15T02:15:17.179Z,1003.17
2022-09-15T02:16:17.205Z,1003.20
2022-09-15T02:17:17.089Z,1003.23
2022-09-15T02:18:17.044Z,1003.17
2022-09-15T02:19:16.997Z,1003.19
2022-09-15T02:20:16.973Z,1003.22
2022-09-15T02:21:16.905Z,1003.21
2022-09-15T02:22:16.861Z,1003.23
2022-09-15T02:23:16.814Z,1003.22
2022-09-15T02:24:16.775Z,1003.22
2022-09-15T02:25:16.724Z,1003.24
2022-09-15T02:26:16.682Z,1003.18
2022-09-15T02:27:16.638Z,1003.19
2022-09-15T02:28:16.593Z,1003.11
2022-09-15T02:29:16.546Z,1003.12
2022-09-15T02:30:16.502Z,1003.08
2022-09-15T02:31:16.490Z,1003.08
2022-09-15T02:32:16.412Z,1003.10
2022-09-15T02:34:16.319Z,1003.12
2022-09-15T02:35:16.277Z,1003.17
2022-09-15T02:36:16.247Z,1003.23
2022-09-15T02:37:16.187Z,1003.26
2022-09-15T02:38:16.139Z,1003.29
2022-09-15T02:39:16.097Z,1003.32
2022-09-15T02:40:16.125Z,1003.32
2022-09-15T02:41:16.208Z,1003.36
2022-09-15T02:42:15.960Z,1003.36
2022-09-15T02:43:15.920Z,1003.37
2022-09-15T02:44:15.871Z,1003.36
2022-09-15T02:45:15.824Z,1003.41
2022-09-15T02:46:15.876Z,1003.43
2022-09-15T02:47:15.734Z,1003.41
2022-09-15T02:48:15.688Z,1003.41
2022-09-15T02:49:15.645Z,1003.42
2022-09-15T02:50:15.596Z,1003.40
2022-09-15T02:51:15.555Z,1003.38
2022-09-15T02:52:15.526Z,1003.38
2022-09-15T02:53:15.467Z,1003.31
2022-09-15T02:54:15.416Z,1003.32
2022-09-15T02:55:15.373Z,1003.33
2022-09-15T02:56:15.328Z,1003.35
2022-09-15T02:57:15.286Z,1003.30
2022-09-15T02:58:15.238Z,1003.28
2022-09-15T02:59:15.191Z,1003.31
2022-09-15T03:00:15.148Z,1003.33
2022-09-15T03:01:15.203Z,1003.34
2022-09-15T03:02:15.124Z,1003.33
2022-09-15T03:03:15.014Z,1003.33
2022-09-15T03:04:14.969Z,1003.33
2022-09-15T03:05:14.927Z,1003.35
2022-09-15T03:06:14.883Z,1003.37
2022-09-15T03:07:14.834Z,1003.38
2022-09-15T03:08:14.809Z,1003.34
2022-09-15T03:09:14.742Z,1003.40
2022-09-15T03:10:14.696Z,1003.40
2022-09-15T03:11:14.653Z,1003.36
2022-09-15T03:12:14.607Z,1003.45
2022-09-15T03:13:14.564Z,1003.44
2022-09-15T03:14:14.520Z,1003.45
2022-09-15T03:15:14.473Z,1003.48
2022-09-15T03:16:14.497Z,1003.46
2022-09-15T03:17:14.388Z,1003.47
2022-09-15T03:18:14.337Z,1003.49
2022-09-15T03:19:14.296Z,1003.47
2022-09-15T03:20:14.249Z,1003.48
2022-09-15T03:21:14.202Z,1003.51
2022-09-15T03:22:14.156Z,1003.48
2022-09-15T03:23:14.113Z,1003.48
2022-09-15T03:24:14.088Z,1003.51
2022-09-15T03:25:14.024Z,1003.48
2022-09-15T03:26:13.976Z,1003.48
2022-09-15T03:27:13.935Z,1003.52
2022-09-15T03:28:13.892Z,1003.54
2022-09-15T03:29:13.843Z,1003.48
2022-09-15T03:30:13.797Z,1003.46
2022-09-15T03:31:13.796Z,1003.44
2022-09-15T03:32:13.706Z,1003.39
2022-09-15T03:33:13.665Z,1003.42
2022-09-15T03:34:13.616Z,1003.44
2022-09-15T03:35:13.576Z,1003.40
2022-09-15T03:36:13.527Z,1003.44
2022-09-15T03:37:13.486Z,1003.44
2022-09-15T03:38:13.439Z,1003.44
2022-09-15T03:39:13.398Z,1003.43
2022-09-15T03:40:13.573Z,1003.43
2022-09-15T03:41:13.306Z,1003.41
2022-09-15T03:42:13.259Z,1003.39
2022-09-15T03:43:18.051Z,1003.40
2022-09-15T03:44:13.176Z,1003.41
2022-09-15T03:45:13.131Z,1003.38
2022-09-15T03:46:13.140Z,1003.37
2022-09-15T03:47:13.038Z,1003.37
2022-09-15T03:48:12.992Z,1003.34
2022-09-15T03:49:12.948Z,1003.31
2022-09-15T03:50:12.902Z,1003.31
2022-09-15T03:51:12.861Z,1003.33
2022-09-15T03:52:12.814Z,1003.35
2022-09-15T03:53:12.768Z,1003.30
2022-09-15T03:54:12.729Z,1003.30
2022-09-15T03:55:12.680Z,1003.32
2022-09-15T03:56:12.677Z,1003.29
2022-09-15T03:57:12.591Z,1003.27
2022-09-15T03:58:12.543Z,1003.28
2022-09-15T03:59:12.500Z,1003.25
2022-09-15T04:00:12.459Z,1003.27
2022-09-15T04:01:12.569Z,1003.24
2022-09-15T04:02:12.437Z,1003.22
2022-09-15T04:03:12.322Z,1003.21
2022-09-15T04:04:12.276Z,1003.22
2022-09-15T04:05:12.233Z,1003.19
2022-09-15T04:06:12.186Z,1003.21
2022-09-15T04:07:12.143Z,1003.22
2022-09-15T04:08:12.099Z,1003.21
2022-09-15T04:09:12.064Z,1003.22
2022-09-15T04:10:12.013Z,1003.26
2022-09-15T04:11:11.966Z,1003.24
2022-09-15T04:12:11.937Z,1003.27
2022-09-15T04:13:11.876Z,1003.26
2022-09-15T04:14:11.834Z,1003.25
2022-09-15T04:15:11.789Z,1003.27
2022-09-15T04:16:11.831Z,1003.28
2022-09-15T04:17:11.696Z,1003.31
2022-09-15T04:18:11.654Z,1003.26
2022-09-15T04:19:11.613Z,1003.31
2022-09-15T04:20:11.561Z,1003.29
2022-09-15T04:21:11.523Z,1003.28
2022-09-15T04:22:15.517Z,1003.28
2022-09-15T04:23:11.433Z,1003.32
2022-09-15T04:24:11.384Z,1003.25
2022-09-15T04:25:11.340Z,1003.33
2022-09-15T04:26:11.296Z,1003.31
2022-09-15T04:27:11.250Z,1003.35
2022-09-15T04:28:11.221Z,1003.37
2022-09-15T04:29:11.161Z,1003.37
2022-09-15T04:30:11.117Z,1003.38
2022-09-15T04:31:11.134Z,1003.39
2022-09-15T04:32:11.032Z,1003.39
2022-09-15T04:33:10.983Z,1003.39
2022-09-15T04:34:10.938Z,1003.39
2022-09-15T04:35:10.895Z,1003.39
2022-09-15T04:36:10.869Z,1003.38
2022-09-15T04:37:10.806Z,1003.37
2022-09-15T04:38:10.760Z,1003.39
2022-09-15T04:39:10.719Z,1003.38
2022-09-15T04:40:10.700Z,1003.40
2022-09-15T04:41:10.628Z,1003.40
2022-09-15T04:42:10.588Z,1003.43
2022-09-15T04:43:10.538Z,1003.40
2022-09-15T04:44:10.513Z,1003.41
2022-09-15T04:45:10.451Z,1003.41
2022-09-15T04:46:10.443Z,1003.41
2022-09-15T04:48:10.326Z,1003.45
2022-09-15T04:49:10.277Z,1003.45
2022-09-15T04:50:10.226Z,1003.48
2022-09-15T04:51:10.184Z,1003.43
2022-09-15T04:52:10.191Z,1003.45
2022-09-15T04:53:10.090Z,1003.47
2022-09-15T04:54:10.048Z,1003.45
2022-09-15T04:55:10.004Z,1003.45
2022-09-15T04:56:09.963Z,1003.43
2022-09-15T04:57:09.914Z,1003.40
2022-09-15T04:58:09.871Z,1003.40
2022-09-15T04:59:09.830Z,1003.41
2022-09-15T05:00:09.856Z,1003.42
2022-09-15T05:01:09.845Z,1003.39
2022-09-15T05:02:09.767Z,1003.44
2022-09-15T05:03:09.648Z,1003.45
2022-09-15T05:04:09.604Z,1003.45
2022-09-15T05:05:09.559Z,1003.44
2022-09-15T05:06:09.517Z,1003.49
2022-09-15T05:07:09.471Z,1003.50
2022-09-15T05:08:09.428Z,1003.53
2022-09-15T05:09:10.610Z,1003.51
2022-09-15T05:10:09.338Z,1003.53
2022-09-15T05:11:09.306Z,1003.50
2022-09-15T05:12:09.251Z,1003.51
2022-09-15T05:13:09.206Z,1003.51
2022-09-15T05:14:09.170Z,1003.53
2022-09-15T05:15:09.118Z,1003.52
2022-09-15T05:16:09.145Z,1003.51
2022-09-15T05:17:09.030Z,1003.53
2022-09-15T05:18:08.980Z,1003.54
2022-09-15T05:19:08.937Z,1003.54
2022-09-15T05:20:08.898Z,1003.55
2022-09-15T05:21:08.850Z,1003.54
2022-09-15T05:22:08.802Z,1003.54
2022-09-15T05:23:08.760Z,1003.55
2022-09-15T05:24:08.720Z,1003.55
2022-09-15T05:25:08.671Z,1003.57
2022-09-15T05:26:08.625Z,1003.59
2022-09-15T05:27:08.583Z,1003.57
2022-09-15T05:28:08.536Z,1003.60
2022-09-15T05:29:08.499Z,1003.59
2022-09-15T05:30:35.980Z,1003.58
2022-09-15T05:31:08.466Z,1003.59
2022-09-15T05:32:08.375Z,1003.58
2022-09-15T05:33:08.315Z,1003.63
2022-09-15T05:34:08.270Z,1003.60
2022-09-15T05:35:08.230Z,1003.59
2022-09-15T05:36:08.185Z,1003.57
2022-09-15T05:37:08.136Z,1003.59
2022-09-15T05:38:08.093Z,1003.55
2022-09-15T05:39:08.051Z,1003.58
2022-09-15T05:40:08.739Z,1003.60
2022-09-15T05:41:07.967Z,1003.55
2022-09-15T05:42:07.917Z,1003.61
2022-09-15T05:43:08.075Z,1003.59
2022-09-15T05:44:07.826Z,1003.58
2022-09-15T05:45:07.797Z,1003.60
2022-09-15T05:46:07.862Z,1003.63
2022-09-15T05:47:07.703Z,1003.60
2022-09-15T05:48:07.669Z,1003.61
2022-09-15T05:49:07.605Z,1003.62
2022-09-15T05:50:07.560Z,1003.66
2022-09-15T05:51:07.517Z,1003.68
2022-09-15T05:52:07.475Z,1003.69
2022-09-15T05:53:07.433Z,1003.70
2022-09-15T05:54:07.388Z,1003.70
2022-09-15T05:55:07.342Z,1003.67
2022-09-15T05:56:07.297Z,1003.72
2022-09-15T05:57:07.251Z,1003.69
2022-09-15T05:58:07.206Z,1003.68
2022-09-15T05:59:07.166Z,1003.70
2022-09-15T06:00:07.116Z,1003.71
2022-09-15T06:01:07.075Z,1003.71
2022-09-15T06:02:07.095Z,1003.69
2022-09-15T06:03:07.064Z,1003.67
2022-09-15T06:04:07.001Z,1003.63
2022-09-15T06:05:06.897Z,1003.56
2022-09-15T06:06:06.854Z,1003.72
2022-09-15T06:07:06.811Z,1003.71
2022-09-15T06:08:06.763Z,1003.75
2022-09-15T06:09:06.720Z,1003.76
2022-09-15T06:10:06.674Z,1003.75
2022-09-15T06:11:06.639Z,1003.76
2022-09-15T06:12:06.586Z,1003.77
2022-09-15T06:13:06.549Z,1003.81
2022-09-15T06:14:06.497Z,1003.80
2022-09-15T06:15:06.462Z,1003.85
2022-09-15T06:16:06.509Z,1003.85
2022-09-15T06:17:06.370Z,1003.87
2022-09-15T06:18:06.342Z,1003.90
2022-09-15T06:19:06.293Z,1003.92
2022-09-15T06:20:06.353Z,1003.92
2022-09-15T06:21:06.190Z,1003.92
2022-09-15T06:22:06.145Z,1003.92
2022-09-15T06:23:06.103Z,1003.89
2022-09-15T06:24:06.054Z,1003.95
2022-09-15T06:25:06.017Z,1003.92
2022-09-15T06:26:05.966Z,1003.93
2022-09-15T06:27:05.925Z,1003.99
2022-09-15T06:28:05.879Z,1003.99
2022-09-15T06:29:05.837Z,1003.97
2022-09-15T06:30:05.791Z,1003.97
2022-09-15T06:31:05.750Z,1004.01
2022-09-15T06:32:05.747Z,1004.00
2022-09-15T06:33:05.660Z,1004.02
2022-09-15T06:34:05.631Z,1004.03
2022-09-15T06:35:05.575Z,1004.02
2022-09-15T06:36:05.554Z,1004.00
2022-09-15T06:37:05.483Z,1004.03
2022-09-15T06:38:05.446Z,1004.05
2022-09-15T06:39:05.398Z,1004.06
2022-09-15T06:40:05.457Z,1004.07
2022-09-15T06:41:05.311Z,1004.11
2022-09-15T06:42:05.917Z,1004.10
2022-09-15T06:43:05.222Z,1004.12
2022-09-15T06:44:05.174Z,1004.12
2022-09-15T06:45:05.133Z,1004.09
2022-09-15T06:46:05.140Z,1004.11
2022-09-15T06:47:05.044Z,1004.11
2022-09-15T06:48:23.440Z,1004.08
2022-09-15T06:49:04.954Z,1004.05
2022-09-15T06:50:04.929Z,1004.03
2022-09-15T06:51:04.867Z,1004.03
2022-09-15T06:52:04.916Z,1004.02
2022-09-15T06:53:04.780Z,1004.00
2022-09-15T06:54:04.733Z,1004.03
2022-09-15T06:55:04.692Z,1004.02
2022-09-15T06:56:04.645Z,1004.02
2022-09-15T06:57:04.603Z,1004.05
2022-09-15T06:58:04.557Z,1004.08
2022-09-15T06:59:04.515Z,1004.07
2022-09-15T07:00:04.486Z,1004.05
2022-09-15T07:01:04.508Z,1004.07
2022-09-15T07:02:05.376Z,1004.08
2022-09-15T07:03:04.445Z,1004.06
2022-09-15T07:04:04.294Z,1004.08
2022-09-15T07:05:04.252Z,1004.09
2022-09-15T07:06:04.206Z,1004.09
2022-09-15T07:07:04.172Z,1004.11
2022-09-15T07:08:04.140Z,1004.09
2022-09-15T07:09:04.077Z,1004.15
2022-09-15T07:10:04.041Z,1004.15
2022-09-15T07:11:03.995Z,1004.19
2022-09-15T07:12:03.952Z,1004.17
2022-09-15T07:13:03.903Z,1004.20
2022-09-15T07:14:03.861Z,1004.30
2022-09-15T07:15:03.841Z,1004.27
2022-09-15T07:16:04.496Z,1004.34
2022-09-15T07:17:03.726Z,1004.33
2022-09-15T07:18:03.685Z,1004.38
2022-09-15T07:19:03.678Z,1004.40
2022-09-15T07:20:03.634Z,1004.41
2022-09-15T07:21:03.555Z,1004.39
2022-09-15T07:22:03.512Z,1004.37
2022-09-15T07:23:03.487Z,1004.34
2022-09-15T07:24:07.012Z,1004.40
2022-09-15T07:25:03.383Z,1004.38
2022-09-15T07:26:03.334Z,1004.40
2022-09-15T07:27:03.306Z,1004.43
2022-09-15T07:28:03.259Z,1004.45
2022-09-15T07:29:03.202Z,1004.43
2022-09-15T07:30:03.165Z,1004.47
2022-09-15T07:31:03.126Z,1004.47
2022-09-15T07:32:03.178Z,1004.46
2022-09-15T07:33:03.027Z,1004.50
2022-09-15T07:34:03.003Z,1004.51
2022-09-15T07:35:02.947Z,1004.55
2022-09-15T07:36:02.901Z,1004.52
2022-09-15T07:37:02.858Z,1004.55
2022-09-15T07:38:02.821Z,1004.59
2022-09-15T07:39:02.773Z,1004.57
2022-09-15T07:40:02.830Z,1004.62
2022-09-15T07:41:02.682Z,1004.60
2022-09-15T07:42:02.641Z,1004.63
2022-09-15T07:43:02.602Z,1004.50
2022-09-15T07:44:02.562Z,1004.55
2022-09-15T07:45:02.522Z,1004.52
2022-09-15T07:46:02.526Z,1004.48
2022-09-15T07:47:02.421Z,1004.52
2022-09-15T07:48:02.375Z,1004.48
2022-09-15T07:49:02.335Z,1004.53
2022-09-15T07:50:02.286Z,1004.54
2022-09-15T07:51:02.242Z,1004.54
2022-09-15T07:52:02.290Z,1004.52
2022-09-15T07:53:02.156Z,1004.58
2022-09-15T07:54:02.110Z,1004.62
2022-09-15T07:55:02.067Z,1004.62
2022-09-15T07:56:02.066Z,1004.64
2022-09-15T07:57:01.981Z,1004.63
2022-09-15T07:58:01.941Z,1004.68
2022-09-15T07:59:01.897Z,1004.69
2022-09-15T08:00:01.861Z,1004.70
2022-09-15T08:01:02.033Z,1004.69
2022-09-15T08:02:01.815Z,1004.73
2022-09-15T08:03:01.724Z,1004.73
2022-09-15T08:04:01.679Z,1004.68
2022-09-15T08:05:01.634Z,1004.70
2022-09-15T08:06:01.591Z,1004.73
2022-09-15T08:07:01.560Z,1004.66
2022-09-15T08:08:01.501Z,1004.70
2022-09-15T08:09:01.859Z,1004.68
2022-09-15T08:10:01.414Z,1004.70
2022-09-15T08:11:01.375Z,1004.70
2022-09-15T08:12:01.351Z,1004.70
2022-09-15T08:13:01.339Z,1004.72
2022-09-15T08:14:01.240Z,1004.76
2022-09-15T08:15:01.201Z,1004.79
2022-09-15T08:16:01.391Z,1004.82
2022-09-15T08:17:01.113Z,1004.79
2022-09-15T08:18:01.071Z,1004.80
2022-09-15T08:19:01.028Z,1004.83
2022-09-15T08:20:00.984Z,1004.82
2022-09-15T08:21:00.943Z,1004.86
2022-09-15T08:22:00.898Z,1004.87
2022-09-15T08:23:00.859Z,1004.84
2022-09-15T08:24:00.808Z,1004.86
2022-09-15T08:25:00.769Z,1004.89
2022-09-15T08:26:00.742Z,1004.92
2022-09-15T08:27:00.689Z,1004.91
2022-09-15T08:28:00.659Z,1004.93
2022-09-15T08:29:00.618Z,1004.94
2022-09-15T08:30:00.556Z,1004.93
2022-09-15T08:31:00.553Z,1004.98
2022-09-15T08:32:00.467Z,1004.97
2022-09-15T08:33:00.424Z,1005.03
2022-09-15T08:34:00.378Z,1005.02
2022-09-15T08:35:00.339Z,1005.09
2022-09-15T08:36:00.289Z,1005.09
2022-09-15T08:37:00.246Z,1005.10
2022-09-15T08:38:00.215Z,1005.10
2022-09-15T08:39:00.163Z,1005.11
2022-09-15T08:40:00.209Z,1005.13
2022-09-15T08:41:00.078Z,1005.12
2022-09-15T08:42:00.035Z,1005.12
2022-09-15T08:42:59.988Z,1005.10
2022-09-15T08:43:59.963Z,1005.12
2022-09-15T08:44:59.951Z,1005.10
2022-09-15T08:45:59.950Z,1005.09
2022-09-15T08:46:59.812Z,1005.16
2022-09-15T08:47:59.776Z,1005.13
2022-09-15T08:49:02.967Z,1005.18
2022-09-15T08:49:59.685Z,1005.19
2022-09-15T08:50:59.640Z,1005.19
2022-09-15T08:51:59.594Z,1005.19
2022-09-15T08:52:59.561Z,1005.15
2022-09-15T08:53:59.512Z,1005.22
2022-09-15T08:54:59.473Z,1005.24
2022-09-15T08:55:59.424Z,1005.23
2022-09-15T08:56:59.380Z,1005.22
2022-09-15T08:58:00.552Z,1005.25
2022-09-15T08:59:42.798Z,1005.26
2022-09-15T09:01:26.119Z,1005.19
2022-09-15T09:02:26.066Z,1005.29
2022-09-15T09:03:25.981Z,1005.29
2022-09-15T09:04:25.944Z,1005.28
2022-09-15T09:05:25.896Z,1005.29
2022-09-15T09:06:25.853Z,1005.30
2022-09-15T09:07:25.823Z,1005.29
2022-09-15T09:08:25.772Z,1005.29
2022-09-15T09:09:25.721Z,1005.28
2022-09-15T09:10:25.682Z,1005.28
2022-09-15T09:11:25.633Z,1005.27
2022-09-15T09:12:25.654Z,1005.29
2022-09-15T09:13:25.548Z,1005.32
2022-09-15T09:14:25.523Z,1005.31
2022-09-15T09:15:25.507Z,1005.34
2022-09-15T09:16:25.424Z,1005.31
2022-09-15T09:17:25.382Z,1005.33
2022-09-15T09:18:25.340Z,1005.30
2022-09-15T09:19:28.955Z,1005.33
2022-09-15T09:21:13.648Z,1005.35
2022-09-15T09:22:13.597Z,1005.36
2022-09-15T09:23:56.950Z,1005.29
2022-09-15T09:24:56.904Z,1005.37
2022-09-15T09:25:56.851Z,1005.34
2022-09-15T09:26:56.811Z,1005.32
2022-09-15T09:27:56.771Z,1005.32
2022-09-15T09:29:51.242Z,1005.35
2022-09-15T09:30:51.218Z,1005.32
2022-09-15T09:31:51.151Z,1005.28
2022-09-15T09:32:51.113Z,1005.26
2022-09-15T09:33:51.176Z,1005.29
2022-09-15T09:34:51.025Z,1005.27
2022-09-15T09:35:50.987Z,1005.29
2022-09-15T09:36:50.945Z,1005.30
2022-09-15T09:40:17.723Z,1005.30
2022-09-15T09:41:17.470Z,1005.33
2022-09-15T09:42:17.419Z,1005.36
2022-09-15T09:43:17.578Z,1005.37
2022-09-15T09:44:17.331Z,1005.41
2022-09-15T09:54:27.009Z,1005.40
2022-09-15T09:55:26.949Z,1005.40
2022-09-15T09:56:26.907Z,1005.42
2022-09-15T09:57:26.866Z,1005.41
2022-09-15T09:58:26.820Z,1005.45
2022-09-15T09:59:26.776Z,1005.40
2022-09-15T10:00:26.733Z,1005.43
2022-09-15T10:01:26.810Z,1005.42
2022-09-15T10:02:26.655Z,1005.41
2022-09-15T10:03:30.767Z,1005.40
2022-09-15T10:04:26.603Z,1005.42
2022-09-15T10:05:26.525Z,1005.37
2022-09-15T10:06:26.491Z,1005.36
2022-09-15T10:07:26.439Z,1005.32
2022-09-15T10:08:26.397Z,1005.30
2022-09-15T10:09:31.214Z,1005.29
2022-09-15T10:10:26.333Z,1005.26
2022-09-15T10:11:26.269Z,1005.25
2022-09-15T10:12:26.226Z,1005.22
2022-09-15T10:13:26.183Z,1005.19
2022-09-15T10:14:26.146Z,1005.18
2022-09-15T10:15:26.158Z,1005.19
2022-09-15T10:16:26.119Z,1005.16
2022-09-15T10:17:26.018Z,1005.14
2022-09-15T10:18:25.972Z,1005.13
2022-09-15T10:19:25.931Z,1005.14
2022-09-15T10:20:25.889Z,1005.14
2022-09-15T10:21:25.858Z,1005.13
2022-09-15T10:22:25.804Z,1005.11
2022-09-15T10:23:25.767Z,1005.08
2022-09-15T10:24:25.722Z,1005.06
2022-09-15T10:25:35.544Z,1005.03
2022-09-15T10:26:25.660Z,1005.03
2022-09-15T10:27:25.598Z,1005.01
2022-09-15T10:29:44.177Z,1005.07
2022-09-15T10:30:43.938Z,1005.03
2022-09-15T10:31:44.007Z,1005.08
2022-09-15T10:55:52.397Z,1005.31
2022-09-15T10:56:39.939Z,1005.31
2022-09-15T10:57:39.891Z,1005.33
2022-09-15T10:58:42.272Z,1005.38
2022-09-15T10:59:39.809Z,1005.40
2022-09-15T11:00:39.797Z,1005.43
2022-09-15T11:01:39.747Z,1005.39
2022-09-15T11:02:39.682Z,1005.44
2022-09-15T11:03:39.639Z,1005.48
2022-09-15T11:04:39.596Z,1005.50
2022-09-15T11:05:39.550Z,1005.53
2022-09-15T11:06:39.511Z,1005.57
2022-09-15T11:07:39.469Z,1005.55
2022-09-15T11:08:39.430Z,1005.59
2022-09-15T11:09:39.390Z,1005.59
2022-09-15T11:10:39.343Z,1005.60
2022-09-15T11:11:39.315Z,1005.62
2022-09-15T11:15:15.867Z,1005.69
2022-09-15T11:16:15.906Z,1005.64
2022-09-15T11:17:15.779Z,1005.65
2022-09-15T11:18:15.746Z,1005.66
2022-09-15T11:19:15.698Z,1005.73
2022-09-15T11:20:15.659Z,1005.75
2022-09-15T11:21:15.611Z,1005.71
2022-09-15T11:22:15.568Z,1005.73
2022-09-15T11:23:15.525Z,1005.73
2022-09-15T11:24:15.486Z,1005.77
2022-09-15T11:25:15.440Z,1005.75
2022-09-15T11:26:18.424Z,1005.76
2022-09-15T11:27:15.375Z,1005.75
2022-09-15T11:28:15.315Z,1005.79
2022-09-15T11:29:15.268Z,1005.77
2022-09-15T11:30:15.224Z,1005.77
2022-09-15T11:31:15.197Z,1005.75
2022-09-15T11:32:15.140Z,1005.74
2022-09-15T11:33:15.101Z,1005.73
2022-09-15T11:34:15.059Z,1005.69
2022-09-15T11:35:15.011Z,1005.68
2022-09-15T11:36:14.970Z,1005.68
2022-09-15T11:37:14.923Z,1005.67
2022-09-15T11:38:14.888Z,1005.65
2022-09-15T11:39:14.842Z,1005.67
2022-09-15T11:40:14.861Z,1005.70
2022-09-15T11:43:39.159Z,1005.60
2022-09-15T11:44:39.097Z,1005.65
2022-09-15T11:45:39.051Z,1005.65
2022-09-15T11:46:39.054Z,1005.64
2022-09-15T11:47:38.973Z,1005.56
2022-09-15T11:48:38.930Z,1005.59
2022-09-15T11:49:38.891Z,1005.62
2022-09-15T11:50:38.847Z,1005.62
2022-09-15T11:51:38.800Z,1005.63
2022-09-15T11:52:38.757Z,1005.63
2022-09-15T11:53:38.710Z,1005.63
2022-09-15T11:54:38.671Z,1005.68
2022-09-15T11:55:38.624Z,1005.59
2022-09-15T11:56:38.586Z,1005.64
2022-09-15T11:57:38.542Z,1005.59
2022-09-15T11:59:39.035Z,1005.64
2022-09-15T12:00:38.977Z,1005.64
2022-09-15T12:01:38.986Z,1005.63
2022-09-15T12:02:38.949Z,1005.64
2022-09-15T12:03:39.049Z,1005.62
2022-09-15T12:04:38.816Z,1005.68
2022-09-15T12:05:38.762Z,1005.59
2022-09-15T12:07:22.106Z,1005.61
2022-09-15T12:08:22.063Z,1005.61
2022-09-15T12:09:22.024Z,1005.65
2022-09-15T12:10:21.981Z,1005.60
2022-09-15T12:11:21.934Z,1005.60
2022-09-15T12:12:21.899Z,1005.61
2022-09-15T12:13:21.851Z,1005.66
2022-09-15T12:14:21.809Z,1005.65
2022-09-15T12:15:22.067Z,1005.62
2022-09-15T12:16:21.774Z,1005.61
2022-09-15T12:17:21.683Z,1005.67
2022-09-15T12:18:38.171Z,1005.65
2022-09-15T12:19:21.594Z,1005.64
2022-09-15T12:20:21.554Z,1005.65
2022-09-15T12:21:21.621Z,1005.69
2022-09-15T12:22:21.467Z,1005.66
2022-09-15T12:23:21.422Z,1005.72
2022-09-15T12:24:21.383Z,1005.68
2022-09-15T12:25:21.337Z,1005.68
2022-09-15T12:26:21.297Z,1005.73
2022-09-15T12:27:24.281Z,1005.75
2022-09-15T12:28:21.252Z,1005.76
2022-09-15T12:29:21.168Z,1005.75
2022-09-15T12:30:21.132Z,1005.79
2022-09-15T12:31:21.129Z,1005.83
2022-09-15T12:33:14.434Z,1005.81
2022-09-15T12:34:14.395Z,1005.86
2022-09-15T12:35:14.347Z,1005.82
2022-09-15T12:36:14.307Z,1005.83
2022-09-15T12:37:14.270Z,1005.82
2022-09-15T12:38:14.221Z,1005.80
2022-09-15T12:39:14.179Z,1005.74
2022-09-15T12:40:14.184Z,1005.76
2022-09-15T12:41:14.093Z,1005.78
2022-09-15T12:42:14.054Z,1005.79
2022-09-15T12:43:14.005Z,1005.74
2022-09-15T12:44:13.963Z,1005.75
2022-09-15T12:45:13.919Z,1005.75
2022-09-15T12:46:13.939Z,1005.75
2022-09-15T12:47:13.855Z,1005.74
2022-09-15T12:48:13.796Z,1005.71
2022-09-15T12:49:13.750Z,1005.72
2022-09-15T12:50:13.710Z,1005.73
2022-09-15T12:51:13.668Z,1005.70
2022-09-15T12:52:13.622Z,1005.65
2022-09-15T12:53:13.576Z,1005.71
2022-09-15T12:54:13.535Z,1005.70
2022-09-15T12:55:13.491Z,1005.75
2022-09-15T12:56:13.458Z,1005.74
2022-09-15T12:57:13.404Z,1005.74